createdAt,value
2023-02-26T00:01:23.851Z,63.45
2023-02-26T00:03:52.795Z,64.23
2023-02-26T00:06:20.281Z,64.90
2023-02-26T00:08:47.311Z,64.79
2023-02-26T00:11:15.366Z,64.70
2023-02-26T00:13:44.482Z,65.34
2023-02-26T00:16:31.544Z,64.76
2023-02-26T00:19:01.246Z,65.24
2023-02-26T00:21:30.472Z,65.43
2023-02-26T00:24:02.273Z,65.30
2023-02-26T00:26:31.679Z,65.65
2023-02-26T00:28:59.659Z,65.78
2023-02-26T00:31:27.211Z,65.41
2023-02-26T00:33:56.022Z,64.97
2023-02-26T00:37:00.537Z,64.51
2023-02-26T00:39:43.601Z,65.05
2023-02-26T00:42:11.279Z,65.62
2023-02-26T00:44:39.531Z,65.14
2023-02-26T00:47:24.308Z,64.77
2023-02-26T00:50:07.888Z,64.44
2023-02-26T00:52:44.240Z,63.86
2023-02-26T00:55:11.236Z,63.75
2023-02-26T00:57:38.029Z,64.50
2023-02-26T01:00:07.432Z,64.82
2023-02-26T01:02:35.860Z,64.90
2023-02-26T01:05:03.642Z,64.84
2023-02-26T01:07:39.674Z,64.54
2023-02-26T01:10:07.331Z,64.58
2023-02-26T01:12:34.700Z,64.48
2023-02-26T01:15:02.053Z,64.13
2023-02-26T01:17:32.878Z,64.22
2023-02-26T01:20:35.079Z,64.09
2023-02-26T01:23:11.854Z,64.22
2023-02-26T01:25:57.793Z,64.29
2023-02-26T01:28:26.428Z,64.17
2023-02-26T01:30:59.947Z,64.50
2023-02-26T01:33:59.302Z,64.15
2023-02-26T01:36:33.328Z,64.85
2023-02-26T01:39:06.116Z,64.71
2023-02-26T01:41:42.349Z,64.63
2023-02-26T01:44:22.674Z,65.15
2023-02-26T01:47:15.884Z,64.88
2023-02-26T01:49:43.204Z,64.89
2023-02-26T01:52:49.112Z,65.12
2023-02-26T01:55:25.783Z,65.74
2023-02-26T01:57:57.190Z,66.31
2023-02-26T02:00:24.282Z,66.18
2023-02-26T02:02:53.972Z,65.86
2023-02-26T02:05:51.215Z,65.56
2023-02-26T02:08:20.591Z,65.83
2023-02-26T02:10:50.734Z,65.40
2023-02-26T02:13:56.450Z,64.81
2023-02-26T02:16:35.420Z,64.82
2023-02-26T02:19:38.035Z,64.87
2023-02-26T02:22:29.599Z,64.80
2023-02-26T02:25:15.835Z,64.71
2023-02-26T02:28:08.379Z,64.72
2023-02-26T02:31:17.014Z,65.23
2023-02-26T02:33:52.432Z,65.04
2023-02-26T02:36:36.188Z,65.01
2023-02-26T02:39:12.949Z,65.05
2023-02-26T02:41:49.003Z,64.87
2023-02-26T02:44:19.246Z,64.58
2023-02-26T02:46:49.628Z,64.42
2023-02-26T02:49:41.920Z,64.41
2023-02-26T02:52:18.880Z,65.29
2023-02-26T02:54:55.752Z,66.06
2023-02-26T02:57:29.724Z,66.35
2023-02-26T03:00:05.499Z,65.97
2023-02-26T03:02:45.428Z,66.90
2023-02-26T03:05:13.232Z,66.01
2023-02-26T03:07:48.330Z,65.47
2023-02-26T03:10:16.349Z,65.57
2023-02-26T03:12:43.681Z,66.32
2023-02-26T03:15:12.534Z,66.79
2023-02-26T03:17:53.667Z,66.90
2023-02-26T03:20:27.039Z,66.51
2023-02-26T03:23:14.130Z,66.38
2023-02-26T03:25:50.828Z,66.19
2023-02-26T03:28:41.067Z,65.94
2023-02-26T03:31:24.408Z,66.07
2023-02-26T03:34:26.976Z,66.31
2023-02-26T03:37:18.377Z,66.57
2023-02-26T03:39:50.723Z,66.52
2023-02-26T03:42:20.656Z,66.57
2023-02-26T03:44:56.907Z,66.45
2023-02-26T03:47:24.739Z,66.51
2023-02-26T03:49:59.156Z,66.84
2023-02-26T03:52:31.039Z,66.02
2023-02-26T03:55:40.926Z,66.40
2023-02-26T03:58:24.972Z,66.51
2023-02-26T04:01:41.833Z,67.15
2023-02-26T04:04:24.110Z,67.39
2023-02-26T04:06:53.669Z,67.74
2023-02-26T04:09:22.012Z,68.04
2023-02-26T04:11:50.938Z,67.34
2023-02-26T04:14:18.786Z,67.01
2023-02-26T04:16:46.955Z,66.83
2023-02-26T04:19:13.995Z,66.46
2023-02-26T04:21:41.386Z,66.43
2023-02-26T04:24:08.127Z,66.32
2023-02-26T04:26:36.514Z,66.33
2023-02-26T04:29:03.928Z,66.78
2023-02-26T04:31:31.759Z,67.46
2023-02-26T04:34:00.502Z,67.63
2023-02-26T04:36:28.444Z,67.69
2023-02-26T04:38:58.796Z,67.46
2023-02-26T04:41:25.808Z,67.00
2023-02-26T04:43:52.628Z,66.64
2023-02-26T04:46:24.565Z,66.87
2023-02-26T04:48:52.214Z,67.06
2023-02-26T04:51:20.073Z,66.93
2023-02-26T04:53:47.338Z,67.24
2023-02-26T04:56:14.415Z,67.14
2023-02-26T04:58:41.410Z,67.14
2023-02-26T05:01:10.479Z,68.14
2023-02-26T05:03:37.320Z,69.35
2023-02-26T05:06:04.576Z,69.06
2023-02-26T05:08:32.130Z,68.97
2023-02-26T05:10:59.045Z,68.81
2023-02-26T05:13:26.300Z,69.77
2023-02-26T05:15:54.464Z,69.19
2023-02-26T05:18:21.530Z,68.88
2023-02-26T05:20:52.359Z,68.65
2023-02-26T05:23:19.720Z,68.42
2023-02-26T05:25:47.016Z,68.58
2023-02-26T05:28:14.659Z,69.34
2023-02-26T05:30:41.854Z,70.05
2023-02-26T05:33:09.406Z,69.73
2023-02-26T05:35:36.334Z,69.49
2023-02-26T05:38:03.271Z,69.32
2023-02-26T05:40:30.268Z,69.34
2023-02-26T05:42:57.168Z,69.40
2023-02-26T05:45:24.252Z,69.66
2023-02-26T05:47:52.420Z,70.00
2023-02-26T05:50:20.004Z,70.66
2023-02-26T05:52:47.124Z,71.69
2023-02-26T05:55:13.997Z,72.72
2023-02-26T05:57:40.856Z,73.69
2023-02-26T06:00:08.591Z,74.48
2023-02-26T06:02:41.966Z,75.43
2023-02-26T06:05:09.274Z,76.16
2023-02-26T06:07:36.162Z,76.46
2023-02-26T06:10:03.812Z,77.10
2023-02-26T06:12:30.986Z,77.29
2023-02-26T06:15:01.089Z,77.83
2023-02-26T06:17:29.558Z,78.24
2023-02-26T06:19:56.794Z,78.63
2023-02-26T06:22:23.760Z,78.87
2023-02-26T06:24:51.453Z,79.06
2023-02-26T06:27:18.515Z,79.31
2023-02-26T06:29:45.578Z,79.29
2023-02-26T06:32:12.991Z,79.31
2023-02-26T06:34:40.494Z,79.32
2023-02-26T06:37:10.064Z,79.25
2023-02-26T06:39:37.688Z,79.26
2023-02-26T06:42:05.582Z,79.57
2023-02-26T06:44:32.790Z,79.66
2023-02-26T06:47:01.049Z,79.78
2023-02-26T06:49:29.086Z,79.91
2023-02-26T06:51:57.906Z,79.73
2023-02-26T06:54:32.032Z,80.16
2023-02-26T06:57:02.683Z,80.25
2023-02-26T06:59:30.337Z,80.42
2023-02-26T07:02:00.813Z,80.52
2023-02-26T07:04:31.300Z,80.66
2023-02-26T07:07:00.052Z,80.50
2023-02-26T07:09:28.858Z,80.51
2023-02-26T07:11:55.853Z,80.56
2023-02-26T07:14:23.193Z,80.48
2023-02-26T07:16:50.323Z,80.36
2023-02-26T07:19:17.652Z,80.59
2023-02-26T07:21:44.621Z,80.53
2023-02-26T07:24:11.775Z,80.79
2023-02-26T07:26:38.703Z,80.74
2023-02-26T07:29:06.135Z,80.78
2023-02-26T07:31:33.866Z,80.42
2023-02-26T07:34:02.276Z,80.67
2023-02-26T07:36:30.559Z,80.30
2023-02-26T07:38:57.643Z,80.33
2023-02-26T07:41:24.398Z,80.40
2023-02-26T07:43:52.189Z,80.32
2023-02-26T07:46:22.392Z,80.36
2023-02-26T07:48:49.990Z,80.61
2023-02-26T07:51:16.906Z,80.17
2023-02-26T07:53:44.271Z,80.09
2023-02-26T07:56:11.312Z,80.32
2023-02-26T07:58:38.730Z,80.34
2023-02-26T08:01:06.715Z,79.99
2023-02-26T08:03:37.038Z,80.02
2023-02-26T08:06:04.789Z,79.84
2023-02-26T08:08:35.533Z,80.07
2023-02-26T08:11:03.171Z,80.17
2023-02-26T08:13:30.455Z,80.64
2023-02-26T08:16:00.694Z,80.79
2023-02-26T08:18:27.925Z,81.03
2023-02-26T08:20:57.183Z,80.81
2023-02-26T08:23:26.257Z,80.74
2023-02-26T08:26:05.646Z,80.73
2023-02-26T08:28:33.378Z,81.08
2023-02-26T08:31:04.644Z,81.39
2023-02-26T08:33:35.524Z,81.61
2023-02-26T08:36:11.543Z,81.22
2023-02-26T08:38:43.447Z,81.33
2023-02-26T08:41:10.743Z,81.78
2023-02-26T08:43:38.156Z,81.98
2023-02-26T08:46:05.901Z,81.87
2023-02-26T08:48:33.438Z,81.89
2023-02-26T08:51:01.054Z,81.93
2023-02-26T08:53:28.764Z,81.99
2023-02-26T08:55:56.920Z,82.00
2023-02-26T08:58:24.054Z,82.28
2023-02-26T09:00:51.770Z,82.46
2023-02-26T09:03:19.203Z,82.55
2023-02-26T09:05:46.380Z,82.72
2023-02-26T09:08:16.283Z,82.76
2023-02-26T09:10:45.346Z,82.67
2023-02-26T09:13:14.100Z,83.48
2023-02-26T09:15:41.419Z,83.08
2023-02-26T09:18:15.995Z,82.64
2023-02-26T09:20:45.838Z,82.40
2023-02-26T09:23:14.412Z,83.38
2023-02-26T09:25:41.873Z,82.79
2023-02-26T09:28:09.339Z,83.32
2023-02-26T09:30:36.816Z,83.12
2023-02-26T09:33:04.140Z,82.27
2023-02-26T09:35:31.253Z,81.97
2023-02-26T09:37:58.995Z,82.31
2023-02-26T09:40:33.787Z,82.69
2023-02-26T09:43:42.646Z,82.79
2023-02-26T09:46:34.381Z,83.05
2023-02-26T09:49:46.402Z,82.84
2023-02-26T09:52:24.295Z,82.98
2023-02-26T09:54:56.311Z,82.38
2023-02-26T09:57:35.864Z,81.64
2023-02-26T10:00:32.382Z,82.04
2023-02-26T10:03:20.408Z,82.07
2023-02-26T10:06:22.952Z,81.72
2023-02-26T10:09:13.088Z,81.52
2023-02-26T10:11:56.517Z,81.60
2023-02-26T10:14:30.641Z,81.64
2023-02-26T10:17:08.000Z,81.39
2023-02-26T10:19:42.680Z,81.51
2023-02-26T10:22:43.241Z,81.13
2023-02-26T10:25:19.956Z,80.97
2023-02-26T10:27:50.014Z,80.97
2023-02-26T10:30:23.233Z,81.23
2023-02-26T10:33:14.067Z,81.50
2023-02-26T10:35:53.333Z,81.19
2023-02-26T10:38:30.252Z,81.43
2023-02-26T10:41:11.193Z,80.73
2023-02-26T10:43:51.527Z,80.63
2023-02-26T10:46:52.937Z,80.54
2023-02-26T10:50:00.073Z,81.41
2023-02-26T10:52:34.321Z,81.14
2023-02-26T10:55:39.401Z,80.38
2023-02-26T10:58:14.317Z,80.32
2023-02-26T11:00:47.550Z,80.59
2023-02-26T11:03:19.482Z,80.87
2023-02-26T11:05:48.631Z,81.25
2023-02-26T11:08:24.896Z,80.98
2023-02-26T11:11:01.351Z,80.91
2023-02-26T11:13:32.463Z,80.93
2023-02-26T11:16:16.776Z,80.82
2023-02-26T11:18:58.278Z,80.86
2023-02-26T11:21:42.334Z,80.74
2023-02-26T11:24:27.415Z,80.77
2023-02-26T11:26:58.182Z,81.22
2023-02-26T11:29:26.100Z,81.64
2023-02-26T11:32:00.870Z,81.87
2023-02-26T11:34:32.159Z,81.38
2023-02-26T11:37:01.434Z,81.07
2023-02-26T11:39:33.749Z,81.16
2023-02-26T11:42:03.741Z,81.22
2023-02-26T11:44:42.374Z,81.59
2023-02-26T11:47:20.575Z,81.67
2023-02-26T11:49:55.691Z,81.51
2023-02-26T11:52:29.134Z,81.59
2023-02-26T11:55:03.018Z,81.54
2023-02-26T11:57:34.087Z,81.35
2023-02-26T12:00:25.306Z,81.12
2023-02-26T12:03:10.459Z,81.01
2023-02-26T12:05:39.086Z,80.74
2023-02-26T12:08:19.166Z,80.86
2023-02-26T12:11:25.182Z,81.03
2023-02-26T12:14:21.687Z,80.54
2023-02-26T12:16:49.354Z,80.78
2023-02-26T12:19:34.843Z,80.72
2023-02-26T12:22:08.154Z,81.08
2023-02-26T12:24:39.589Z,81.37
2023-02-26T12:27:37.556Z,81.50
2023-02-26T12:30:23.758Z,81.54
2023-02-26T12:32:58.588Z,81.86
2023-02-26T12:35:57.511Z,81.76
2023-02-26T12:38:47.804Z,82.08
2023-02-26T12:41:45.502Z,82.00
2023-02-26T12:44:32.579Z,81.92
2023-02-26T12:47:14.999Z,82.07
2023-02-26T12:49:47.972Z,82.30
2023-02-26T12:52:29.023Z,82.57
2023-02-26T12:55:13.207Z,82.39
2023-02-26T12:57:50.372Z,82.27
2023-02-26T13:00:32.733Z,82.39
2023-02-26T13:03:41.522Z,82.57
2023-02-26T13:06:31.072Z,82.77
2023-02-26T13:09:41.867Z,82.52
2023-02-26T13:12:23.935Z,82.27
2023-02-26T13:15:18.462Z,82.43
2023-02-26T13:17:52.430Z,82.39
2023-02-26T13:20:28.488Z,82.40
2023-02-26T13:23:03.597Z,82.57
2023-02-26T13:25:48.132Z,82.72
2023-02-26T13:28:31.245Z,82.63
2023-02-26T13:31:03.318Z,82.63
2023-02-26T13:33:35.810Z,82.63
2023-02-26T13:36:10.458Z,82.73
2023-02-26T13:39:29.930Z,82.80
2023-02-26T13:42:28.338Z,82.69
2023-02-26T13:45:13.671Z,82.81
2023-02-26T13:48:18.824Z,82.83
2023-02-26T13:51:25.164Z,83.13
2023-02-26T13:53:57.628Z,82.95
2023-02-26T13:56:31.059Z,83.06
2023-02-26T13:59:06.101Z,83.31
2023-02-26T14:01:57.059Z,83.37
2023-02-26T14:04:32.160Z,83.29
2023-02-26T14:07:11.953Z,83.30
2023-02-26T14:10:01.889Z,83.23
2023-02-26T14:12:42.736Z,83.35
2023-02-26T14:15:14.126Z,83.36
2023-02-26T14:18:01.600Z,83.30
2023-02-26T14:20:32.992Z,83.33
2023-02-26T14:23:10.298Z,83.32
2023-02-26T14:25:49.994Z,83.46
2023-02-26T14:28:24.440Z,83.42
2023-02-26T14:31:14.339Z,83.44
2023-02-26T14:33:59.872Z,83.21
2023-02-26T14:37:00.184Z,83.23
2023-02-26T14:39:35.022Z,83.16
2023-02-26T14:42:12.247Z,83.36
2023-02-26T14:44:48.982Z,83.37
2023-02-26T14:47:16.851Z,83.36
2023-02-26T14:49:49.078Z,83.46
2023-02-26T14:52:24.631Z,83.77
2023-02-26T14:54:59.040Z,83.47
2023-02-26T14:57:34.764Z,83.52
2023-02-26T15:00:47.318Z,83.38
2023-02-26T15:03:25.209Z,83.32
2023-02-26T15:05:58.293Z,83.22
2023-02-26T15:08:52.953Z,83.14
2023-02-26T15:11:30.398Z,83.30
2023-02-26T15:14:07.092Z,83.28
2023-02-26T15:16:36.950Z,83.02
2023-02-26T15:19:29.784Z,83.14
2023-02-26T15:22:06.712Z,83.16
2023-02-26T15:24:34.515Z,83.17
2023-02-26T15:27:06.051Z,83.07
2023-02-26T15:29:37.377Z,83.03
2023-02-26T15:32:26.721Z,83.24
2023-02-26T15:35:20.031Z,83.29
2023-02-26T15:37:57.202Z,83.24
2023-02-26T15:40:28.422Z,83.36
2023-02-26T15:43:00.377Z,83.56
2023-02-26T15:45:43.241Z,83.52
2023-02-26T15:48:22.784Z,83.51
2023-02-26T15:51:00.987Z,83.33
2023-02-26T15:53:49.552Z,83.57
2023-02-26T15:56:25.267Z,83.57
2023-02-26T15:59:07.301Z,83.51
2023-02-26T16:01:40.545Z,83.42
2023-02-26T16:04:13.345Z,83.63
2023-02-26T16:06:48.821Z,83.55
2023-02-26T16:09:25.508Z,83.43
2023-02-26T16:11:55.880Z,83.47
2023-02-26T16:14:35.364Z,83.20
2023-02-26T16:17:04.999Z,83.14
2023-02-26T16:19:38.030Z,83.30
2023-02-26T16:22:16.242Z,83.02
2023-02-26T16:24:43.691Z,82.87
2023-02-26T16:27:13.561Z,82.87
2023-02-26T16:29:52.639Z,82.89
2023-02-26T16:32:23.576Z,82.44
2023-02-26T16:34:56.867Z,82.28
2023-02-26T16:37:31.270Z,82.64
2023-02-26T16:40:10.585Z,82.96
2023-02-26T16:42:51.629Z,83.15
2023-02-26T16:45:37.101Z,83.11
2023-02-26T16:48:20.444Z,82.83
2023-02-26T16:51:01.126Z,82.38
2023-02-26T16:53:39.087Z,82.30
2023-02-26T16:56:08.286Z,82.39
2023-02-26T16:58:37.133Z,82.56
2023-02-26T17:01:14.733Z,82.77
2023-02-26T17:03:44.406Z,82.69
2023-02-26T17:06:17.424Z,82.62
2023-02-26T17:08:49.266Z,82.80
2023-02-26T17:11:25.253Z,83.21
2023-02-26T17:14:21.617Z,83.31
2023-02-26T17:16:51.230Z,83.88
2023-02-26T17:19:19.864Z,83.82
2023-02-26T17:21:54.419Z,84.16
2023-02-26T17:24:37.090Z,84.63
2023-02-26T17:27:05.432Z,84.90
2023-02-26T17:29:42.606Z,85.09
2023-02-26T17:32:23.069Z,84.68
2023-02-26T17:34:51.709Z,84.91
2023-02-26T17:37:21.993Z,85.09
2023-02-26T17:39:50.466Z,85.40
2023-02-26T17:42:21.231Z,85.12
2023-02-26T17:44:57.292Z,85.27
2023-02-26T17:47:27.991Z,85.32
2023-02-26T17:49:55.301Z,85.60
2023-02-26T17:52:23.040Z,85.80
2023-02-26T17:54:50.722Z,85.91
2023-02-26T17:57:21.408Z,85.67
2023-02-26T17:59:53.217Z,84.91
2023-02-26T18:02:27.831Z,85.71
2023-02-26T18:04:56.223Z,85.64
2023-02-26T18:07:28.028Z,85.64
2023-02-26T18:09:56.151Z,85.68
2023-02-26T18:12:23.818Z,85.13
2023-02-26T18:14:51.372Z,85.16
2023-02-26T18:17:30.955Z,85.07
2023-02-26T18:19:58.469Z,85.30
2023-02-26T18:22:27.212Z,85.62
2023-02-26T18:24:54.829Z,85.25
2023-02-26T18:27:24.424Z,85.11
2023-02-26T18:29:53.309Z,84.64
2023-02-26T18:32:23.964Z,84.92
2023-02-26T18:34:56.225Z,84.84
2023-02-26T18:37:26.720Z,85.08
2023-02-26T18:39:55.288Z,85.27
2023-02-26T18:42:28.113Z,85.29
2023-02-26T18:44:55.876Z,85.21
2023-02-26T18:47:25.788Z,85.30
2023-02-26T18:49:53.596Z,84.99
2023-02-26T18:52:20.846Z,84.95
2023-02-26T18:54:49.181Z,85.19
2023-02-26T18:57:18.096Z,85.10
2023-02-26T18:59:45.737Z,84.68
2023-02-26T19:02:13.608Z,85.60
2023-02-26T19:04:41.923Z,85.84
2023-02-26T19:07:11.348Z,85.89
2023-02-26T19:09:39.831Z,86.06
2023-02-26T19:12:07.592Z,86.19
2023-02-26T19:14:39.013Z,86.11
2023-02-26T19:17:06.388Z,85.94
2023-02-26T19:19:33.518Z,86.46
2023-02-26T19:22:00.763Z,86.39
2023-02-26T19:24:28.247Z,86.66
2023-02-26T19:26:55.648Z,86.53
2023-02-26T19:29:23.256Z,86.36
2023-02-26T19:31:50.846Z,85.85
2023-02-26T19:34:19.097Z,86.22
2023-02-26T19:36:49.889Z,86.19
2023-02-26T19:39:18.166Z,85.60
2023-02-26T19:41:48.646Z,85.06
2023-02-26T19:44:16.970Z,85.13
2023-02-26T19:46:44.580Z,84.94
2023-02-26T19:49:14.060Z,85.05
2023-02-26T19:51:41.991Z,85.04
2023-02-26T19:54:12.993Z,85.02
2023-02-26T19:56:43.361Z,85.14
2023-02-26T19:59:14.087Z,85.03
2023-02-26T20:01:43.184Z,85.39
2023-02-26T20:04:10.423Z,85.25
2023-02-26T20:06:37.760Z,85.37
2023-02-26T20:09:06.744Z,85.20
2023-02-26T20:11:34.209Z,84.98
2023-02-26T20:14:02.256Z,85.08
2023-02-26T20:16:30.267Z,84.97
2023-02-26T20:18:57.741Z,84.75
2023-02-26T20:21:26.905Z,85.03
2023-02-26T20:23:54.841Z,85.17
2023-02-26T20:26:22.803Z,85.20
2023-02-26T20:28:53.232Z,85.54
2023-02-26T20:31:23.117Z,85.57
2023-02-26T20:33:50.567Z,85.15
2023-02-26T20:36:18.217Z,85.02
2023-02-26T20:38:49.685Z,85.08
2023-02-26T20:41:17.749Z,86.10
2023-02-26T20:43:45.104Z,86.09
2023-02-26T20:46:12.778Z,85.52
2023-02-26T20:48:41.301Z,86.16
2023-02-26T20:51:11.819Z,86.22
2023-02-26T20:53:40.267Z,86.25
2023-02-26T20:56:07.658Z,86.30
2023-02-26T20:58:34.618Z,86.45
2023-02-26T21:01:01.774Z,86.51
2023-02-26T21:03:33.312Z,86.65
2023-02-26T21:06:00.190Z,86.58
2023-02-26T21:08:28.571Z,86.29
2023-02-26T21:10:56.897Z,86.26
2023-02-26T21:13:25.473Z,86.39
2023-02-26T21:15:53.279Z,86.67
2023-02-26T21:18:20.441Z,86.74
2023-02-26T21:20:48.613Z,87.02
2023-02-26T21:23:16.079Z,86.78
2023-02-26T21:25:45.950Z,86.28
2023-02-26T21:28:12.976Z,86.25
2023-02-26T21:30:40.489Z,85.88
2023-02-26T21:33:08.043Z,85.38
2023-02-26T21:35:36.390Z,86.16
2023-02-26T21:38:03.660Z,85.79
2023-02-26T21:40:31.421Z,85.60
2023-02-26T21:42:58.398Z,85.46
2023-02-26T21:45:25.284Z,86.04
2023-02-26T21:47:53.471Z,86.02
2023-02-26T21:50:20.370Z,85.76
2023-02-26T21:52:47.315Z,86.26
2023-02-26T21:55:16.025Z,86.34
2023-02-26T21:57:43.700Z,86.34
2023-02-26T22:00:11.171Z,86.65
2023-02-26T22:02:42.424Z,86.66
2023-02-26T22:05:12.006Z,86.90
2023-02-26T22:07:39.254Z,86.79
2023-02-26T22:10:07.337Z,86.66
2023-02-26T22:12:34.379Z,86.30
2023-02-26T22:15:01.651Z,86.00
2023-02-26T22:17:30.264Z,86.02
2023-02-26T22:19:57.373Z,86.01
2023-02-26T22:22:26.192Z,85.61
2023-02-26T22:24:53.095Z,85.44
2023-02-26T22:27:20.040Z,85.77
2023-02-26T22:29:47.451Z,85.41
2023-02-26T22:32:15.552Z,86.04
2023-02-26T22:34:45.154Z,85.58
2023-02-26T22:37:12.445Z,85.64
2023-02-26T22:39:39.643Z,85.40
2023-02-26T22:42:07.897Z,85.18
2023-02-26T22:44:34.848Z,85.79
2023-02-26T22:47:01.712Z,85.53
2023-02-26T22:49:28.657Z,85.94
2023-02-26T22:51:55.526Z,85.53
2023-02-26T22:54:22.471Z,85.58
2023-02-26T22:56:49.883Z,85.90
2023-02-26T22:59:16.723Z,85.77
2023-02-26T23:01:43.865Z,85.73
2023-02-26T23:04:10.843Z,85.74
2023-02-26T23:06:37.789Z,86.30
2023-02-26T23:09:05.441Z,86.21
2023-02-26T23:11:32.413Z,86.10
2023-02-26T23:13:59.329Z,85.98
2023-02-26T23:16:26.191Z,86.02
2023-02-26T23:18:53.110Z,85.84
2023-02-26T23:21:20.408Z,85.97
2023-02-26T23:23:48.113Z,85.68
2023-02-26T23:26:15.001Z,85.80
2023-02-26T23:28:42.360Z,85.42
2023-02-26T23:31:09.438Z,85.53
2023-02-26T23:33:36.203Z,85.28
2023-02-26T23:36:03.300Z,85.94
2023-02-26T23:38:30.147Z,85.93
2023-02-26T23:40:56.990Z,86.19
2023-02-26T23:43:24.333Z,86.44
2023-02-26T23:45:51.208Z,86.06
2023-02-26T23:48:18.057Z,86.45
2023-02-26T23:50:47.980Z,85.93
2023-02-26T23:53:15.032Z,86.06
2023-02-26T23:55:42.080Z,86.07
2023-02-26T23:58:08.868Z,86.40
